Time;durP1;ratioP1;P1;durP2;ratioP2;P2;SDS_P1;SDS_P2;PMS_P1;PMS_P2;Temp;Humidity;BMP_temperature;BMP_pressure;BME280_temperature;BME280_humidity;BME280_pressure;Samples;Min_cycle;Max_cycle;Signal;HPM_P1;HPM_P2
2023/02/04 00:00:06;;;;;;;;;12.50;12.00;;;;;12.32;62.51;103425.72;2028178;28;2791934;-75
2023/02/04 00:01:17;;;;;;;;;14.00;10.00;;;;;12.31;62.50;103426.63;2000120;28;2783582;-75
2023/02/04 00:02:28;;;;;;;;;10.00;9.00;;;;;12.30;62.77;103427.50;2019278;28;2764868;-75
2023/02/04 00:03:38;;;;;;;;;11.67;11.33;;;;;12.32;63.01;103431.00;2025481;28;3504393;-75
2023/02/04 00:04:49;;;;;;;;;11.33;10.67;;;;;12.31;62.61;103421.34;2024332;28;3501297;-75
2023/02/04 00:06:00;;;;;;;;;13.50;12.00;;;;;12.33;62.65;103426.63;2021152;28;2784682;-75
2023/02/04 00:07:12;;;;;;;;;13.00;12.20;;;;;12.32;62.59;103422.25;2031613;28;1813859;-75
2023/02/04 00:08:23;;;;;;;;;8.67;8.00;;;;;12.30;62.76;103419.56;2007401;28;3456503;-75
2023/02/04 00:09:34;;;;;;;;;14.25;12.00;;;;;12.30;62.68;103424.00;2036487;28;1827366;-75
2023/02/04 00:10:45;;;;;;;;;15.33;12.67;;;;;12.30;63.03;103418.72;1983074;28;3538763;-75
2023/02/04 00:11:56;;;;;;;;;14.00;12.50;;;;;12.29;62.71;103423.09;2008222;28;2810708;-75
2023/02/04 00:13:08;;;;;;;;;12.50;11.00;;;;;12.29;62.92;103428.38;1993502;28;1844032;-75
2023/02/04 00:14:18;;;;;;;;;11.50;9.00;;;;;12.29;62.91;103423.09;1993713;28;2770088;-76
2023/02/04 00:15:29;;;;;;;;;14.00;12.50;;;;;12.29;62.86;103417.84;2026842;28;2788865;-75
2023/02/04 00:16:40;;;;;;;;;12.67;10.00;;;;;12.29;62.96;103423.09;2028241;28;1832570;-75
2023/02/04 00:17:52;;;;;;;;;14.50;11.50;;;;;12.28;62.80;103426.59;2007320;28;1841972;-76
2023/02/04 00:19:03;;;;;;;;;14.67;12.33;;;;;12.29;62.80;103422.22;1999316;28;3521544;-75
2023/02/04 00:20:14;;;;;;;;;9.33;7.67;;;;;12.30;62.68;103424.00;2006105;28;2745069;-76
2023/02/04 00:21:25;;;;;;;;;12.00;11.50;;;;;12.32;62.72;103422.25;1983861;28;1838892;-76
2023/02/04 00:22:35;;;;;;;;;14.00;12.00;;;;;12.29;63.17;103417.84;1993376;28;2794026;-75
2023/02/04 00:23:47;;;;;;;;;13.00;9.33;;;;;12.31;62.95;103425.75;1993937;28;3496037;-75
2023/02/04 00:24:57;;;;;;;;;12.00;10.00;;;;;12.30;63.04;103424.00;2010588;28;2785660;-75
2023/02/04 00:26:08;;;;;;;;;17.00;11.00;;;;;12.29;63.06;103422.22;2017364;28;2799221;-75
2023/02/04 00:27:21;;;;;;;;;13.75;10.00;;;;;12.29;63.31;103425.75;2008969;28;1837781;-75
2023/02/04 00:28:31;;;;;;;;;13.50;13.00;;;;;12.28;62.86;103423.97;1992168;28;2805507;-75
2023/02/04 00:29:42;;;;;;;;;12.00;12.00;;;;;12.27;63.05;103420.44;2017115;28;2789847;-75
2023/02/04 00:30:53;;;;;;;;;16.50;10.00;;;;;12.27;63.05;103414.31;2020745;28;2793978;-75
2023/02/04 00:32:04;;;;;;;;;15.67;9.00;;;;;12.28;62.99;103423.97;2017546;28;3500238;-76
2023/02/04 00:33:15;;;;;;;;;14.00;14.00;;;;;12.27;63.33;103417.81;2018815;28;2805464;-75
2023/02/04 00:34:26;;;;;;;;;17.00;13.00;;;;;12.27;62.73;103414.31;2001556;28;2803404;-75
2023/02/04 00:35:38;;;;;;;;;13.75;12.00;;;;;12.28;63.25;103416.06;2039254;28;1835170;-75
2023/02/04 00:36:49;;;;;;;;;13.50;10.00;;;;;12.26;62.78;103408.16;2007463;28;2788820;-75
2023/02/04 00:38:00;;;;;;;;;11.00;10.00;;;;;12.27;63.08;103411.69;2026328;28;2789871;-75
2023/02/04 00:39:11;;;;;;;;;13.50;9.50;;;;;12.27;62.92;103415.16;2017220;28;2770062;-75
2023/02/04 00:40:22;;;;;;;;;16.00;12.50;;;;;12.27;63.25;103412.53;2002311;28;2809150;-76
2023/02/04 00:41:33;;;;;;;;;13.00;11.00;;;;;12.29;63.17;103412.56;2005689;28;1844133;-75
2023/02/04 00:42:44;;;;;;;;;15.00;12.00;;;;;12.29;63.18;103412.56;2006886;28;2779402;-75
2023/02/04 00:43:55;;;;;;;;;12.50;12.50;;;;;12.29;63.14;103416.94;1993461;28;2788794;-75
2023/02/04 00:45:07;;;;;;;;;14.00;10.00;;;;;12.29;63.28;103417.84;2001126;28;2787744;-75
2023/02/04 00:46:18;;;;;;;;;12.00;9.33;;;;;12.27;63.16;103414.31;2000745;28;3496089;-75
2023/02/04 00:47:29;;;;;;;;;12.50;12.50;;;;;12.27;63.01;103409.03;2019944;28;2785696;-75
2023/02/04 00:48:40;;;;;;;;;15.00;13.50;;;;;12.27;63.24;103409.91;2018722;28;2792991;-75
2023/02/04 00:49:51;;;;;;;;;12.33;11.33;;;;;12.26;63.11;103409.91;2010502;28;1839958;-75
2023/02/04 00:51:01;;;;;;;;;15.50;9.50;;;;;12.26;63.19;103408.16;1985439;28;2779446;-75
2023/02/04 00:52:12;;;;;;;;;13.00;13.00;;;;;12.26;63.39;103412.53;1994612;28;2799210;-75
2023/02/04 00:53:23;;;;;;;;;18.50;15.50;;;;;12.26;63.12;103412.53;2018524;28;2816937;-75
2023/02/04 00:54:34;;;;;;;;;16.50;13.00;;;;;12.26;63.17;103402.00;1991647;28;2802314;-75
2023/02/04 00:55:46;;;;;;;;;11.25;11.00;;;;;12.25;63.46;103406.38;2023781;28;1838891;-75
2023/02/04 00:56:57;;;;;;;;;14.50;12.50;;;;;12.25;63.17;103406.38;2007190;28;2787766;-75
2023/02/04 00:58:08;;;;;;;;;17.50;12.50;;;;;12.26;63.12;103412.53;2011436;28;2800252;-75
2023/02/04 00:59:19;;;;;;;;;12.00;10.00;;;;;12.27;63.35;103409.91;2005331;28;1824212;-75
2023/02/04 01:00:30;;;;;;;;;16.00;12.00;;;;;12.27;63.43;103409.03;2007269;28;2798157;-75
2023/02/04 01:01:41;;;;;;;;;15.50;13.25;;;;;12.28;63.37;103410.78;2005412;28;1835754;-75
2023/02/04 01:02:52;;;;;;;;;15.00;13.00;;;;;12.29;63.28;103417.84;1970599;28;2789885;-76
2023/02/04 01:04:03;;;;;;;;;13.33;6.33;;;;;12.29;63.34;103409.91;1985881;28;3489882;-75
2023/02/04 01:05:14;;;;;;;;;15.50;13.50;;;;;12.30;63.39;103416.09;2008897;28;2796100;-75
2023/02/04 01:06:25;;;;;;;;;13.00;12.00;;;;;12.29;63.62;103416.94;2024237;28;2786725;-75
2023/02/04 01:07:37;;;;;;;;;14.20;11.20;;;;;12.27;63.25;103416.94;2010795;28;1835686;-75
2023/02/04 01:08:47;;;;;;;;;19.00;13.00;;;;;12.25;63.20;103429.22;2006662;28;2823136;-75
2023/02/04 01:09:58;;;;;;;;;11.00;9.50;;;;;12.23;63.57;103418.69;1999578;28;2763833;-75
2023/02/04 01:11:09;;;;;;;;;17.50;11.00;;;;;12.22;63.56;103422.19;2017884;28;2805467;-75
2023/02/04 01:12:21;;;;;;;;;18.00;14.00;;;;;12.22;63.48;103430.09;2017916;28;2805498;-75
2023/02/04 01:13:35;;;;;;;;;15.17;14.67;;;;;12.23;63.64;103423.06;2011861;28;1840400;-75
2023/02/04 01:14:46;;;;;;;;;12.00;11.50;;;;;12.22;63.70;103426.59;1999839;28;1840365;-75
2023/02/04 01:15:59;;;;;;;;;12.67;12.00;;;;;12.21;63.42;103425.72;2036732;28;1838022;-75
2023/02/04 01:17:10;;;;;;;;;14.50;13.00;;;;;12.21;63.58;103424.81;1969940;28;2795070;-75
2023/02/04 01:18:21;;;;;;;;;14.50;12.75;;;;;12.21;63.92;103422.19;2004507;28;1827453;-75
2023/02/04 01:19:31;;;;;;;;;16.00;14.00;;;;;12.20;63.75;103423.09;1977192;28;2796072;-75
2023/02/04 01:20:42;;;;;;;;;18.50;14.00;;;;;12.21;63.37;103424.81;1995418;28;2829456;-75
2023/02/04 01:21:53;;;;;;;;;13.00;12.50;;;;;12.21;63.89;103420.44;2000181;28;2786690;-75
2023/02/04 01:23:04;;;;;;;;;12.33;10.67;;;;;12.22;63.81;103418.69;2040602;28;1841932;-75
2023/02/04 01:24:15;;;;;;;;;14.67;11.67;;;;;12.23;63.89;103428.34;1977160;28;3520033;-75
2023/02/04 01:25:26;;;;;;;;;18.50;15.00;;;;;12.23;63.56;103429.22;2008290;28;2810672;-75
2023/02/04 01:26:39;;;;;;;;;17.33;16.00;;;;;12.23;63.71;103420.44;1999325;28;2822219;-75
2023/02/04 01:27:50;;;;;;;;;13.20;13.20;;;;;12.24;63.85;103432.75;2005220;28;1832063;-76
2023/02/04 01:29:01;;;;;;;;;17.00;15.00;;;;;12.24;63.95;103430.13;2005796;28;2807559;-75
2023/02/04 01:30:14;;;;;;;;;16.00;15.00;;;;;12.23;64.15;103433.63;1991366;28;2823215;-76
2023/02/04 01:31:25;;;;;;;;;18.00;15.00;;;;;12.23;63.79;103430.97;1972768;28;2811188;-75
2023/02/04 01:32:35;;;;;;;;;18.00;15.00;;;;;12.22;64.07;103423.97;2003077;28;2816926;-75
2023/02/04 01:33:46;;;;;;;;;17.00;14.00;;;;;12.22;63.68;103431.88;1992740;28;2810664;-75
2023/02/04 01:34:57;;;;;;;;;13.50;13.50;;;;;12.21;63.82;103431.00;2024373;28;2800255;-75
2023/02/04 01:36:09;;;;;;;;;17.75;14.00;;;;;12.23;63.90;103421.31;2008895;28;1834766;-75
2023/02/04 01:37:20;;;;;;;;;17.67;14.33;;;;;12.22;63.73;103423.97;1980965;28;2818993;-75
2023/02/04 01:38:31;;;;;;;;;20.50;14.00;;;;;12.24;63.86;103432.75;1997204;28;2817993;-76
2023/02/04 01:39:42;;;;;;;;;14.00;14.00;;;;;12.23;63.88;103423.97;1992699;28;2797135;-75
2023/02/04 01:40:53;;;;;;;;;15.00;15.00;;;;;12.23;64.06;103434.50;2015578;28;2819020;-76
2023/02/04 01:42:04;;;;;;;;;24.00;15.00;;;;;12.24;64.25;103433.66;1987129;28;2808557;-75
2023/02/04 01:43:17;;;;;;;;;15.00;13.00;;;;;12.24;63.77;103430.13;1984156;28;2807562;-76
2023/02/04 01:44:28;;;;;;;;;15.00;14.00;;;;;12.24;63.96;103431.00;2007114;28;2805885;-75
2023/02/04 01:45:41;;;;;;;;;17.20;15.40;;;;;12.24;64.04;103428.38;2004963;28;2829416;-75
2023/02/04 01:46:53;;;;;;;;;15.40;14.40;;;;;12.25;64.01;103431.84;2014056;28;1829464;-75
2023/02/04 01:48:06;;;;;;;;;17.50;15.50;;;;;12.26;64.08;103429.25;2001094;28;2804418;-75
2023/02/04 01:49:17;;;;;;;;;18.00;17.00;;;;;12.27;63.86;103436.25;2007816;28;2826374;-75
2023/02/04 01:50:31;;;;;;;;;16.17;14.17;;;;;12.26;64.03;103431.88;2027427;28;1832678;-75
2023/02/04 01:51:44;;;;;;;;;14.33;11.33;;;;;12.25;63.87;103431.84;2003295;28;1822170;-76
2023/02/04 01:52:56;;;;;;;;;18.25;15.50;;;;;12.25;63.96;103427.47;1984704;28;1851406;-75
2023/02/04 01:54:12;;;;;;;;;18.33;17.00;;;;;12.25;64.25;103434.50;2012567;28;3563772;-76
2023/02/04 01:55:26;;;;;;;;;14.00;13.00;;;;;12.22;64.28;103429.25;2006602;28;2792971;-75
2023/02/04 01:56:44;;;;;;;;;15.83;12.50;;;;;12.20;64.28;103426.56;2008375;28;1833708;-75
2023/02/04 01:57:57;;;;;;;;;17.00;15.00;;;;;12.20;64.14;103429.22;1972699;28;2804430;-75
2023/02/04 01:59:13;;;;;;;;;22.50;16.50;;;;;12.19;64.27;103429.22;1977771;28;2844000;-75
2023/02/04 02:00:32;;;;;;;;;24.00;22.00;;;;;12.17;64.41;103428.34;1986787;28;2831531;-75
2023/02/04 02:01:48;;;;;;;;;22.50;19.00;;;;;12.17;64.75;103428.34;2006710;28;2819063;-75
2023/02/04 02:02:59;;;;;;;;;27.00;18.67;;;;;12.13;64.57;103436.22;1983849;28;3574222;-75
2023/02/04 02:04:13;;;;;;;;;20.00;18.50;;;;;12.12;64.32;103434.41;2006361;28;2817998;-75
2023/02/04 02:05:34;;;;;;;;;13.33;5.67;;;;;12.13;64.60;103432.69;1978383;28;3510726;-75
2023/02/04 02:06:51;;;;;;;;;21.00;16.67;;;;;12.13;64.83;103435.34;2006713;28;2826488;-75
2023/02/04 02:08:04;;;;;;;;;18.60;16.60;;;;;12.14;64.66;103429.22;2022268;28;2824181;-75
2023/02/04 02:09:15;;;;;;;;;20.00;18.00;;;;;12.12;64.73;103429.16;1982157;28;2821144;-75
2023/02/04 02:10:30;;;;;;;;;15.33;11.50;;;;;12.12;64.76;103428.28;2011573;28;1826470;-76
2023/02/04 02:11:40;;;;;;;;;18.00;13.00;;;;;12.13;64.51;103430.94;1984115;28;2795150;-75
2023/02/04 02:12:54;;;;;;;;;20.00;18.33;;;;;12.13;64.77;103425.69;2022528;28;2831655;-75
2023/02/04 02:14:04;;;;;;;;;19.50;16.00;;;;;12.14;64.59;103430.09;2005177;28;2813793;-75
2023/02/04 02:15:17;;;;;;;;;17.67;14.33;;;;;12.15;64.62;103421.28;1995408;28;3547072;-75
2023/02/04 02:16:29;;;;;;;;;19.33;16.33;;;;;12.15;64.72;103425.69;2005701;28;3553429;-75
2023/02/04 02:17:41;;;;;;;;;17.60;16.60;;;;;12.14;65.06;103422.19;2033493;28;1832148;-75
2023/02/04 02:18:56;;;;;;;;;19.00;17.67;;;;;12.14;64.80;103416.91;2007318;28;2821151;-75
2023/02/04 02:20:13;;;;;;;;;18.00;16.00;;;;;12.14;64.73;103423.94;1994772;28;2837762;-75
2023/02/04 02:21:44;;;;;;;;;22.00;17.67;;;;;12.14;65.02;103419.53;1971071;28;3555460;-75
2023/02/04 02:23:12;;;;;;;;;16.00;15.00;;;;;12.14;64.93;103416.91;2006513;28;2821110;-75
2023/02/04 02:24:31;;;;;;;;;18.17;15.50;;;;;12.17;65.00;103420.44;2011695;28;1846209;-75
2023/02/04 02:25:43;;;;;;;;;20.33;17.67;;;;;12.15;64.94;103412.50;1984732;28;3550616;-75
2023/02/04 02:27:01;;;;;;;;;18.17;15.50;;;;;12.15;64.96;103417.75;2038368;28;1833630;-76
2023/02/04 02:28:17;;;;;;;;;20.17;17.33;;;;;12.13;64.72;103412.50;2012440;28;1835810;-75
2023/02/04 02:29:28;;;;;;;;;17.67;15.00;;;;;12.13;65.00;103415.13;1985189;28;2800300;-75
2023/02/04 02:30:44;;;;;;;;;18.00;16.60;;;;;12.13;64.89;103414.25;2023678;28;3552289;-75
2023/02/04 02:31:57;;;;;;;;;22.67;16.67;;;;;12.12;64.93;103418.59;1998033;28;3559557;-75
2023/02/04 02:33:08;;;;;;;;;24.00;18.33;;;;;12.10;65.05;103409.81;2000725;28;2834672;-75
2023/02/04 02:34:19;;;;;;;;;23.67;19.00;;;;;12.11;65.17;103408.06;2003280;28;3566898;-75
2023/02/04 02:35:32;;;;;;;;;17.20;16.60;;;;;12.11;64.94;103414.22;2032087;28;1840358;-75
2023/02/04 02:36:43;;;;;;;;;22.67;19.33;;;;;12.11;65.22;103416.84;2003228;28;3561711;-76
2023/02/04 02:37:55;;;;;;;;;22.40;18.20;;;;;12.11;65.45;103416.84;2024803;28;3566898;-75
2023/02/04 02:39:07;;;;;;;;;19.67;16.67;;;;;12.11;65.12;103410.69;2007336;28;3555433;-75
2023/02/04 02:40:19;;;;;;;;;20.67;19.33;;;;;12.12;65.09;103412.47;2006519;28;3560625;-75
2023/02/04 02:41:31;;;;;;;;;24.67;18.67;;;;;12.11;65.17;103408.94;2008496;28;3570031;-75
2023/02/04 02:42:47;;;;;;;;;18.60;17.80;;;;;12.13;65.25;103411.59;2025668;28;1841968;-75
2023/02/04 02:43:57;;;;;;;;;20.50;19.00;;;;;12.12;65.18;103409.84;2008589;28;2825376;-75
2023/02/04 02:45:19;;;;;;;;;22.00;17.33;;;;;12.11;65.19;103408.94;2022586;28;3552305;-75
2023/02/04 02:46:31;;;;;;;;;20.00;17.67;;;;;12.11;65.21;103414.22;2006508;28;3568987;-75
2023/02/04 02:47:44;;;;;;;;;20.67;17.00;;;;;12.12;65.26;103415.97;2033981;28;2830467;-76
2023/02/04 02:48:55;;;;;;;;;23.00;21.00;;;;;12.13;65.21;103411.59;1992623;28;3562728;-75
2023/02/04 02:50:14;;;;;;;;;24.33;18.33;;;;;12.13;65.07;103415.13;2011230;28;3564809;-75
2023/02/04 02:51:25;;;;;;;;;22.33;19.67;;;;;12.14;65.24;103414.28;2007265;28;3568967;-75
2023/02/04 02:52:37;;;;;;;;;18.67;17.67;;;;;12.14;65.02;103414.28;2014453;28;3550242;-75
2023/02/04 02:53:49;;;;;;;;;21.40;20.00;;;;;12.14;65.20;103416.91;2022282;28;1844140;-75
2023/02/04 02:55:00;;;;;;;;;22.67;16.33;;;;;12.15;65.40;103423.94;1999401;28;3573748;-75
2023/02/04 02:56:12;;;;;;;;;21.00;17.33;;;;;12.17;65.46;103423.94;2017621;28;3551346;-75
2023/02/04 02:57:23;;;;;;;;;21.00;17.50;;;;;12.16;65.25;103416.91;2013354;28;2820082;-75
2023/02/04 02:58:35;;;;;;;;;22.80;17.80;;;;;12.18;65.18;103424.81;1980203;28;3571045;-75
2023/02/04 02:59:47;;;;;;;;;21.67;19.33;;;;;12.18;65.14;103417.78;2011296;28;3561680;-76
2023/02/04 03:01:03;;;;;;;;;21.67;19.00;;;;;12.19;65.28;103416.03;2002562;28;3555465;-75
2023/02/04 03:02:20;;;;;;;;;17.00;16.67;;;;;12.18;65.28;103416.91;1998333;28;3548174;-75
2023/02/04 03:03:34;;;;;;;;;22.67;20.00;;;;;12.18;65.08;103411.63;2001005;28;3561731;-75
2023/02/04 03:04:55;;;;;;;;;21.33;17.00;;;;;12.17;65.29;103407.25;1998233;28;3558570;-75
2023/02/04 03:06:11;;;;;;;;;22.00;15.00;;;;;12.16;65.12;103409.00;1997740;28;2804528;-75
2023/02/04 03:07:23;;;;;;;;;28.67;19.67;;;;;12.18;65.27;103411.63;2002959;28;3579406;-75
2023/02/04 03:08:35;;;;;;;;;19.00;17.33;;;;;12.18;65.23;103422.16;2005580;28;2827384;-75
2023/02/04 03:09:47;;;;;;;;;24.67;18.00;;;;;12.18;65.32;103423.06;1993517;28;3570026;-75
2023/02/04 03:10:58;;;;;;;;;19.67;16.67;;;;;12.18;65.33;103417.78;2002630;28;2812770;-75
2023/02/04 03:12:09;;;;;;;;;19.00;18.00;;;;;12.18;65.22;103425.69;2009513;28;2823662;-75
2023/02/04 03:13:21;;;;;;;;;20.67;18.33;;;;;12.20;65.21;103425.72;2000998;28;3551298;-75
2023/02/04 03:14:34;;;;;;;;;23.67;17.67;;;;;12.20;65.08;103423.09;1998969;28;3566268;-75
2023/02/04 03:15:47;;;;;;;;;17.00;16.33;;;;;12.21;65.25;103424.81;1999706;28;3538787;-75
2023/02/04 03:17:01;;;;;;;;;18.00;15.00;;;;;12.20;64.92;103421.31;2000094;28;2822136;-76
2023/02/04 03:18:15;;;;;;;;;17.50;15.00;;;;;12.22;65.06;103419.53;1978460;28;2798228;-76
2023/02/04 03:19:27;;;;;;;;;24.33;18.00;;;;;12.22;65.23;103421.34;1978749;28;3558562;-75
2023/02/04 03:20:39;;;;;;;;;21.00;20.00;;;;;12.21;65.15;103416.91;2008449;28;3559607;-75
2023/02/04 03:21:52;;;;;;;;;23.67;18.33;;;;;12.21;65.38;103419.56;2008660;28;3563778;-75
2023/02/04 03:23:02;;;;;;;;;22.00;19.00;;;;;12.19;65.04;103416.94;2010203;28;2826330;-76
2023/02/04 03:24:14;;;;;;;;;23.00;18.33;;;;;12.19;65.39;103416.94;2024496;28;3569018;-75
2023/02/04 03:25:27;;;;;;;;;24.67;17.67;;;;;12.20;65.21;103412.53;2024458;28;3570043;-75
2023/02/04 03:26:39;;;;;;;;;19.33;18.33;;;;;12.20;65.09;103409.91;2000866;28;2826370;-75
2023/02/04 03:27:54;;;;;;;;;21.33;18.67;;;;;12.19;65.31;103410.75;2000876;28;3557513;-75
2023/02/04 03:29:08;;;;;;;;;17.67;16.33;;;;;12.17;65.24;103410.78;1992329;28;2834725;-75
2023/02/04 03:30:20;;;;;;;;;21.00;19.00;;;;;12.18;65.42;103416.91;2008364;28;2819005;-76
2023/02/04 03:31:32;;;;;;;;;22.67;18.67;;;;;12.17;65.26;103425.69;1993418;28;3567948;-75
2023/02/04 03:32:43;;;;;;;;;21.00;17.00;;;;;12.17;65.34;103418.69;2005759;28;2829441;-75
2023/02/04 03:33:55;;;;;;;;;22.33;19.00;;;;;12.18;65.41;103420.41;1993350;28;3562816;-75
2023/02/04 03:35:07;;;;;;;;;18.67;17.33;;;;;12.19;65.33;103421.31;2015375;28;3556476;-75
2023/02/04 03:36:18;;;;;;;;;18.50;13.50;;;;;12.18;65.37;103419.53;2006448;28;2799234;-75
2023/02/04 03:37:30;;;;;;;;;20.00;16.67;;;;;12.18;65.38;103419.53;1977183;28;2827496;-75
2023/02/04 03:38:41;;;;;;;;;19.00;18.67;;;;;12.16;65.34;103419.53;2008239;28;3553390;-75
2023/02/04 03:39:53;;;;;;;;;17.67;15.67;;;;;12.16;65.53;103422.19;2023048;28;2818070;-76
2023/02/04 03:41:04;;;;;;;;;21.67;18.00;;;;;12.15;65.44;103421.28;2007662;28;3560685;-75
2023/02/04 03:42:16;;;;;;;;;19.40;16.60;;;;;12.15;65.39;103421.28;2028338;28;3556501;-75
2023/02/04 03:43:27;;;;;;;;;22.00;18.00;;;;;12.17;65.45;103423.06;2021357;28;2826416;-75
2023/02/04 03:44:38;;;;;;;;;18.50;16.00;;;;;12.17;65.44;103423.06;1995566;28;2833555;-76
2023/02/04 03:45:50;;;;;;;;;20.00;17.67;;;;;12.17;65.59;103426.59;2001352;28;2828395;-75
2023/02/04 03:47:01;;;;;;;;;23.33;18.00;;;;;12.18;65.28;103427.44;2008060;28;3561709;-75
2023/02/04 03:48:13;;;;;;;;;17.75;16.50;;;;;12.17;65.33;103423.06;2034626;28;1844084;-75
2023/02/04 03:49:23;;;;;;;;;22.00;20.50;;;;;12.15;65.51;103425.69;1985454;28;2822149;-76
2023/02/04 03:50:35;;;;;;;;;24.33;17.00;;;;;12.17;65.46;103433.59;2001108;28;3568990;-75
2023/02/04 03:51:47;;;;;;;;;23.00;17.67;;;;;12.14;65.53;103429.22;2016874;28;3568998;-75
2023/02/04 03:52:59;;;;;;;;;20.00;18.00;;;;;12.12;65.52;103429.16;2014071;28;3568307;-75
2023/02/04 03:54:11;;;;;;;;;18.33;16.00;;;;;12.10;65.46;103430.03;2024980;28;3553365;-75
2023/02/04 03:55:22;;;;;;;;;18.00;14.67;;;;;12.09;65.87;103425.63;2025448;28;3535674;-75
2023/02/04 03:56:34;;;;;;;;;22.67;19.00;;;;;12.10;65.57;103428.25;2023100;28;3563795;-75
2023/02/04 03:57:46;;;;;;;;;20.00;18.20;;;;;12.09;65.61;103426.53;2030330;28;3571037;-76
2023/02/04 03:58:58;;;;;;;;;20.67;17.67;;;;;12.07;65.65;103423.00;2025077;28;2823328;-75
2023/02/04 04:00:10;;;;;;;;;26.00;18.67;;;;;12.06;65.54;103429.13;2000230;28;3568983;-75
2023/02/04 04:01:21;;;;;;;;;20.00;17.50;;;;;12.08;65.38;103429.13;2002197;28;2810703;-75
2023/02/04 04:02:33;;;;;;;;;21.33;18.33;;;;;12.08;65.61;103427.38;2015981;28;3560649;-75
2023/02/04 04:03:46;;;;;;;;;15.50;15.50;;;;;12.08;65.58;103427.38;2035041;28;2815864;-75
2023/02/04 04:04:57;;;;;;;;;19.00;16.33;;;;;12.09;65.41;103430.91;1996079;28;3558550;-75
2023/02/04 04:06:11;;;;;;;;;29.29;17.71;;;;;12.09;65.78;103433.53;2040737;28;2855541;-75
2023/02/04 04:07:24;;;;;;;;;19.40;14.80;;;;;12.08;65.88;103430.03;2020464;28;2813769;-75
2023/02/04 04:08:37;;;;;;;;;22.50;14.83;;;;;12.07;65.55;103428.28;2011762;28;2828344;-75
2023/02/04 04:09:48;;;;;;;;;21.33;17.33;;;;;12.08;66.14;103431.78;1983590;28;2822144;-75
2023/02/04 04:11:00;;;;;;;;;21.00;19.00;;;;;12.08;65.72;103432.66;2005803;28;3550304;-76
2023/02/04 04:12:12;;;;;;;;;17.60;14.40;;;;;12.09;65.77;103431.78;2028739;28;3526252;-75
2023/02/04 04:13:23;;;;;;;;;20.20;19.40;;;;;12.09;65.55;103437.06;2028952;28;3557497;-75
2023/02/04 04:14:35;;;;;;;;;24.00;17.33;;;;;12.09;65.59;103430.91;2025178;28;3555466;-75
2023/02/04 04:15:47;;;;;;;;;20.67;17.33;;;;;12.09;65.76;103431.78;2015969;28;3557520;-76
2023/02/04 04:16:58;;;;;;;;;13.25;13.00;;;;;12.10;65.70;103438.81;2035229;28;1837905;-75
2023/02/04 04:18:11;;;;;;;;;21.50;17.83;;;;;12.10;65.66;103436.19;2007086;28;1832593;-75
2023/02/04 04:19:24;;;;;;;;;18.20;16.20;;;;;12.09;65.77;103430.91;1997274;28;2815864;-75
2023/02/04 04:20:35;;;;;;;;;14.50;13.00;;;;;12.09;65.73;103442.34;2000412;28;2794026;-75
2023/02/04 04:21:47;;;;;;;;;20.33;14.33;;;;;12.09;65.87;103446.72;2002999;28;3539840;-75
2023/02/04 04:22:59;;;;;;;;;19.00;17.00;;;;;12.07;65.79;103441.47;2025687;28;3563770;-75
2023/02/04 04:24:10;;;;;;;;;15.00;14.00;;;;;12.07;65.93;103440.56;2023677;28;2814822;-76
2023/02/04 04:25:21;;;;;;;;;14.33;13.67;;;;;12.06;65.72;103442.31;2002737;28;2802721;-75
2023/02/04 04:26:33;;;;;;;;;21.33;16.00;;;;;12.09;65.74;103441.44;2005586;28;3561722;-75
2023/02/04 04:27:45;;;;;;;;;19.33;17.00;;;;;12.07;65.81;103441.47;2024411;28;3531991;-75
2023/02/04 04:28:56;;;;;;;;;19.00;16.67;;;;;12.05;65.17;103443.19;2020458;28;2833705;-75
2023/02/04 04:30:08;;;;;;;;;17.00;16.00;;;;;12.07;65.90;103441.47;2008386;28;2810686;-75
2023/02/04 04:31:19;;;;;;;;;17.00;15.67;;;;;12.07;65.81;103441.47;1984200;28;3552284;-75
2023/02/04 04:32:30;;;;;;;;;18.00;16.00;;;;;12.09;65.65;103444.09;2016730;28;2813141;-75
2023/02/04 04:33:41;;;;;;;;;20.50;17.25;;;;;12.09;65.70;103446.72;2002739;28;1831568;-75
2023/02/04 04:34:52;;;;;;;;;16.00;16.00;;;;;12.09;65.89;103450.25;1979646;28;2808574;-75
2023/02/04 04:36:03;;;;;;;;;16.00;14.50;;;;;12.11;65.57;103443.22;1991954;28;2816956;-75
2023/02/04 04:37:14;;;;;;;;;15.00;15.00;;;;;12.11;65.30;103444.97;1983241;28;2810695;-75
2023/02/04 04:38:25;;;;;;;;;19.50;13.50;;;;;12.09;65.89;103442.34;1994960;28;2811729;-75
2023/02/04 04:39:37;;;;;;;;;23.67;19.33;;;;;12.08;65.53;103445.84;2003295;28;3558567;-75
2023/02/04 04:40:48;;;;;;;;;23.00;14.00;;;;;12.09;65.96;103447.63;2024751;28;2830825;-75
2023/02/04 04:42:00;;;;;;;;;20.00;17.33;;;;;12.09;65.72;103446.72;2001706;28;3554367;-75
2023/02/04 04:43:11;;;;;;;;;10.00;7.67;;;;;12.09;65.78;103452.00;2023120;28;2756596;-75
2023/02/04 04:44:22;;;;;;;;;12.67;11.33;;;;;12.07;65.93;103451.13;2019394;28;3504401;-75
2023/02/04 04:45:33;;;;;;;;;21.00;17.00;;;;;12.07;65.70;103451.13;2020313;28;2826940;-75
2023/02/04 04:46:44;;;;;;;;;22.00;17.50;;;;;12.07;65.97;103451.13;2000314;28;1841933;-75
2023/02/04 04:47:58;;;;;;;;;19.71;16.43;;;;;12.06;65.69;103452.88;2007408;28;1835688;-75
2023/02/04 04:49:08;;;;;;;;;15.00;11.67;;;;;12.06;65.81;103449.34;2008207;28;3531488;-75
2023/02/04 04:50:20;;;;;;;;;19.67;15.00;;;;;12.07;65.88;103452.00;2014407;28;2820151;-75
2023/02/04 04:51:32;;;;;;;;;15.33;15.33;;;;;12.07;65.66;103448.47;2000244;28;3550225;-75
2023/02/04 04:52:43;;;;;;;;;22.67;17.00;;;;;12.08;65.62;103455.50;2023344;28;3566957;-75
2023/02/04 04:53:55;;;;;;;;;15.33;14.67;;;;;12.06;65.97;103449.34;2015039;28;2805483;-75
2023/02/04 04:55:07;;;;;;;;;16.50;15.00;;;;;12.05;65.76;103443.19;2005233;28;2805514;-75
2023/02/04 04:56:18;;;;;;;;;22.33;16.67;;;;;12.04;65.60;103454.63;1985035;28;2830580;-75
2023/02/04 04:57:30;;;;;;;;;21.00;15.67;;;;;12.04;65.69;103451.97;1991117;28;3553390;-75
2023/02/04 04:58:41;;;;;;;;;18.67;16.33;;;;;12.04;65.61;103454.63;1993796;28;3546055;-75
2023/02/04 04:59:54;;;;;;;;;20.83;13.00;;;;;12.05;65.91;103456.34;2039233;28;2810652;-75
2023/02/04 05:01:05;;;;;;;;;18.50;14.00;;;;;12.02;65.60;103451.97;2001358;28;2808620;-75
2023/02/04 05:02:18;;;;;;;;;17.33;12.33;;;;;12.02;65.75;103459.91;2001205;28;2795062;-75
2023/02/04 05:03:29;;;;;;;;;14.00;14.00;;;;;12.03;65.77;103458.13;1987065;28;2781470;-75
2023/02/04 05:04:40;;;;;;;;;13.50;13.50;;;;;12.03;65.56;103464.28;2017530;28;2795039;-75
2023/02/04 05:05:53;;;;;;;;;18.33;15.67;;;;;12.04;65.63;103454.63;2016815;28;2827354;-75
2023/02/04 05:07:05;;;;;;;;;20.00;15.40;;;;;12.03;65.87;103464.28;2006057;28;1829417;-75
2023/02/04 05:08:19;;;;;;;;;19.29;15.14;;;;;12.02;65.77;103465.16;2010546;28;1831487;-75
2023/02/04 05:09:30;;;;;;;;;18.00;16.00;;;;;12.01;65.43;103470.41;2010609;28;2824653;-75
2023/02/04 05:10:42;;;;;;;;;18.00;13.00;;;;;12.00;65.58;103458.13;2024182;28;2795058;-75
2023/02/04 05:11:53;;;;;;;;;13.50;13.50;;;;;11.97;65.76;103458.09;1981913;28;2792976;-75
2023/02/04 05:13:05;;;;;;;;;18.67;15.67;;;;;11.98;65.90;103460.72;2018354;28;2817017;-75
2023/02/04 05:14:16;;;;;;;;;18.33;15.67;;;;;12.00;65.83;103458.97;2000499;28;2817069;-75
2023/02/04 05:15:26;;;;;;;;;17.00;14.50;;;;;11.99;65.63;103459.88;2007020;28;2813812;-75
2023/02/04 05:16:39;;;;;;;;;20.67;12.83;;;;;11.99;65.73;103459.88;2015943;28;2827348;-75
2023/02/04 05:17:51;;;;;;;;;15.50;12.75;;;;;12.01;65.43;103457.22;2012292;28;1826332;-75
2023/02/04 05:19:05;;;;;;;;;17.00;16.00;;;;;12.01;65.63;103460.75;2006681;28;1836160;-75
2023/02/04 05:20:16;;;;;;;;;17.50;13.00;;;;;12.00;65.78;103452.84;2000008;28;2804979;-75